Time;durP1;ratioP1;P1;durP2;ratioP2;P2;SDS_P1;SDS_P2;PMS_P1;PMS_P2;Temp;Humidity;BMP_temperature;BMP_pressure;BME280_temperature;BME280_humidity;BME280_pressure;Samples;Min_cycle;Max_cycle;Signal;HPM_P1;HPM_P2
2021/03/12 00:00:09;;;;;;;0.50;0.50;;;;;;;7.75;79.77;95044.88;5017428;28;20241;-86
2021/03/12 00:02:35;;;;;;;0.50;0.50;;;;;;;7.85;78.34;95034.41;5019033;28;20207;-86
2021/03/12 00:05:01;;;;;;;0.40;0.40;;;;;;;7.79;77.44;95029.97;5019051;28;20718;-85
2021/03/12 00:07:28;;;;;;;0.50;0.50;;;;;;;7.81;77.63;95046.78;5019986;28;20248;-86
2021/03/12 00:09:54;;;;;;;0.50;0.50;;;;;;;7.80;77.41;95044.38;5019321;28;20229;-83
2021/03/12 00:12:20;;;;;;;0.50;0.50;;;;;;;7.85;77.25;95035.22;5020801;28;20648;-83
2021/03/12 00:14:46;;;;;;;0.50;0.50;;;;;;;7.85;76.32;95042.09;5020301;28;20614;-82
2021/03/12 00:17:12;;;;;;;0.50;0.50;;;;;;;7.76;76.78;95040.56;5020630;28;20241;-82
2021/03/12 00:19:38;;;;;;;0.60;0.60;;;;;;;7.88;76.54;95041.75;5019407;28;20314;-86
2021/03/12 00:22:04;;;;;;;0.60;0.60;;;;;;;7.99;76.63;95043.91;5019608;28;20857;-85
2021/03/12 00:24:30;;;;;;;0.50;0.50;;;;;;;8.03;75.95;95062.31;5020461;28;20228;-85
2021/03/12 00:26:59;;;;;;;0.50;0.50;;;;;;;7.99;76.31;95051.59;5019696;28;20234;-85
2021/03/12 00:29:25;;;;;;;0.50;0.50;;;;;;;8.02;75.75;95064.06;5020232;28;20251;-83
2021/03/12 00:31:51;;;;;;;0.50;0.50;;;;;;;7.97;75.87;95044.06;5019456;28;20227;-85
2021/03/12 00:34:17;;;;;;;0.50;0.50;;;;;;;7.84;75.55;95059.25;5019310;28;20277;-84
2021/03/12 00:36:43;;;;;;;0.47;0.47;;;;;;;7.86;75.83;95077.81;5019088;28;20234;-82
2021/03/12 00:39:09;;;;;;;0.50;0.50;;;;;;;7.94;76.35;95069.25;5019618;28;20230;-84
2021/03/12 00:41:36;;;;;;;0.60;0.60;;;;;;;7.95;75.26;95076.75;5020136;28;20222;-85
2021/03/12 00:44:02;;;;;;;0.50;0.50;;;;;;;7.94;75.78;95077.72;5019368;28;20274;-83
2021/03/12 00:46:28;;;;;;;0.50;0.50;;;;;;;7.80;76.09;95073.38;5019240;28;20230;-86
2021/03/12 00:48:54;;;;;;;0.50;0.50;;;;;;;7.69;76.34;95081.47;5019671;28;20253;-85
2021/03/12 00:51:20;;;;;;;0.60;0.60;;;;;;;7.71;77.12;95076.16;5018722;28;20227;-84
2021/03/12 00:53:46;;;;;;;0.60;0.60;;;;;;;7.74;78.24;95074.03;5019569;28;20209;-85
2021/03/12 00:56:12;;;;;;;0.77;0.60;;;;;;;7.68;77.32;95061.94;5019052;28;20217;-85
2021/03/12 00:58:38;;;;;;;0.63;0.60;;;;;;;7.67;77.23;95056.97;5019066;28;20942;-84
2021/03/12 01:01:05;;;;;;;0.60;0.60;;;;;;;7.63;76.99;95041.16;5018209;28;20230;-84
2021/03/12 01:03:31;;;;;;;0.90;0.60;;;;;;;7.73;76.80;95038.34;5018157;28;20277;-83
2021/03/12 01:05:57;;;;;;;0.50;0.50;;;;;;;7.64;77.04;95032.50;5017990;28;22269;-83
2021/03/12 01:08:23;;;;;;;0.50;0.50;;;;;;;7.60;77.36;95036.38;5018486;28;20658;-83
2021/03/12 01:10:49;;;;;;;0.73;0.60;;;;;;;7.65;76.83;95034.09;5017796;28;20241;-83
2021/03/12 01:13:15;;;;;;;0.70;0.70;;;;;;;7.67;77.53;95023.69;5017687;28;20237;-84
2021/03/12 01:15:42;;;;;;;0.57;0.53;;;;;;;7.69;77.69;95022.53;5018023;28;20729;-83
2021/03/12 01:18:10;;;;;;;0.77;0.60;;;;;;;7.62;77.81;95040.34;5017907;28;20227;-81
2021/03/12 01:20:38;;;;;;;0.73;0.60;;;;;;;7.63;77.20;95036.81;5018527;28;20253;-85
2021/03/12 01:23:04;;;;;;;0.50;0.50;;;;;;;7.73;77.94;95056.28;5018193;28;20223;-86
2021/03/12 01:25:35;;;;;;;0.70;0.70;;;;;;;7.63;77.69;95048.84;5019086;28;20230;-85
2021/03/12 01:28:01;;;;;;;1.03;0.63;;;;;;;7.51;78.77;95057.88;5018052;28;20231;-82
2021/03/12 01:30:34;;;;;;;0.50;0.50;;;;;;;7.36;78.20;95070.63;5016997;28;20616;-83
2021/03/12 01:33:01;;;;;;;0.83;0.63;;;;;;;7.47;79.83;95064.31;5017523;28;20226;-85
2021/03/12 01:35:28;;;;;;;0.40;0.40;;;;;;;7.35;79.26;95076.69;5018210;28;20225;-84
2021/03/12 01:37:54;;;;;;;1.83;0.60;;;;;;;7.26;81.97;95059.81;5017280;28;20768;-82
2021/03/12 01:40:22;;;;;;;0.50;0.50;;;;;;;7.24;81.37;95054.84;5016847;28;20238;-82
2021/03/12 01:42:48;;;;;;;0.97;0.60;;;;;;;7.18;80.47;95060.63;5017352;28;20237;-84
2021/03/12 01:45:18;;;;;;;0.50;0.50;;;;;;;7.21;82.10;95044.16;5016583;28;20237;-84
2021/03/12 01:47:44;;;;;;;0.60;0.60;;;;;;;7.06;81.58;95054.31;5017022;28;20207;-84
2021/03/12 01:50:11;;;;;;;0.40;0.40;;;;;;;6.96;82.32;95068.25;5017012;28;20380;-85
2021/03/12 01:52:37;;;;;;;1.13;0.50;;;;;;;6.86;82.02;95078.72;5017554;28;20237;-82
2021/03/12 01:55:06;;;;;;;1.10;0.87;;;;;;;6.90;83.17;95077.41;5016736;28;20222;-85
2021/03/12 01:57:33;;;;;;;0.87;0.60;;;;;;;6.91;83.60;95082.38;5017095;28;20246;-85
2021/03/12 01:59:59;;;;;;;0.60;0.60;;;;;;;6.84;82.00;95073.75;5010119;28;20234;-85
2021/03/12 02:02:27;;;;;;;0.50;0.50;;;;;;;6.70;81.66;95059.09;5030955;28;20862;-85
2021/03/12 02:04:53;;;;;;;1.33;0.50;;;;;;;6.51;81.15;95034.72;5017680;28;20230;-85
2021/03/12 02:07:20;;;;;;;0.40;0.40;;;;;;;6.48;82.55;95047.81;5017282;28;20233;-82
2021/03/12 02:09:46;;;;;;;0.50;0.50;;;;;;;6.57;81.54;95040.91;5016836;28;20300;-84
2021/03/12 02:12:19;;;;;;;0.50;0.50;;;;;;;6.69;81.33;95066.94;5016984;28;20480;-84
2021/03/12 02:14:53;;;;;;;0.50;0.50;;;;;;;6.63;79.99;95072.72;5016489;28;20210;-84
2021/03/12 02:17:24;;;;;;;0.50;0.50;;;;;;;6.64;78.83;95046.16;5017679;28;20202;-85
2021/03/12 02:20:08;;;;;;;0.53;0.53;;;;;;;6.70;78.17;95040.41;5017590;28;20261;-84
2021/03/12 02:22:40;;;;;;;1.03;0.60;;;;;;;6.58;76.56;95038.19;5017709;28;20226;-84
2021/03/12 02:25:10;;;;;;;0.50;0.50;;;;;;;6.62;77.11;95043.78;5017576;28;20805;-82
2021/03/12 02:27:37;;;;;;;0.77;0.50;;;;;;;6.71;77.11;95050.47;5016692;28;20237;-83
2021/03/12 02:30:07;;;;;;;1.40;0.70;;;;;;;6.66;76.15;95059.59;5020197;28;20226;-84
2021/03/12 02:32:36;;;;;;;0.63;0.60;;;;;;;6.72;75.95;95064.84;5020781;28;20198;-84
2021/03/12 02:35:06;;;;;;;0.70;0.60;;;;;;;6.77;75.98;95060.03;5020815;28;20253;-85
2021/03/12 02:37:33;;;;;;;1.80;0.70;;;;;;;6.82;75.84;95057.78;5021008;28;20238;-83
2021/03/12 02:40:00;;;;;;;0.80;0.60;;;;;;;6.86;75.23;95053.91;5021306;28;20226;-83
2021/03/12 02:42:27;;;;;;;0.50;0.50;;;;;;;6.95;74.31;95064.91;5021839;28;20230;-84
2021/03/12 02:44:59;;;;;;;0.53;0.53;;;;;;;6.93;74.42;95051.47;5021454;28;20589;-84
2021/03/12 02:47:32;;;;;;;0.73;0.63;;;;;;;7.01;74.77;95082.16;5021794;28;20432;-86
2021/03/12 02:49:59;;;;;;;0.50;0.50;;;;;;;6.89;74.99;95066.38;5021688;28;20322;-85
2021/03/12 02:52:26;;;;;;;0.73;0.73;;;;;;;6.83;75.31;95067.03;5021805;28;20279;-83
2021/03/12 02:54:56;;;;;;;0.60;0.60;;;;;;;6.84;74.30;95060.16;5021004;28;20227;-84
2021/03/12 02:57:25;;;;;;;1.10;0.60;;;;;;;6.87;73.95;95047.03;5021404;28;20231;-83
2021/03/12 02:59:58;;;;;;;0.50;0.50;;;;;;;6.86;74.41;95050.56;5019994;28;20229;-82
2021/03/12 03:02:27;;;;;;;1.63;0.70;;;;;;;6.87;73.67;95054.72;5021116;28;20233;-84
2021/03/12 03:04:55;;;;;;;0.50;0.50;;;;;;;6.82;73.56;95067.19;5020483;28;20230;-82
2021/03/12 03:07:25;;;;;;;1.20;0.60;;;;;;;6.76;73.71;95058.41;5019531;28;20234;-82
2021/03/12 03:09:54;;;;;;;1.33;1.10;;;;;;;6.76;74.11;95073.78;5019821;28;20261;-85
2021/03/12 03:12:25;;;;;;;1.53;0.53;;;;;;;6.70;73.65;95078.78;5019627;28;20717;-83
2021/03/12 03:14:59;;;;;;;0.80;0.70;;;;;;;6.80;73.83;95077.59;5019677;28;20658;-82
2021/03/12 03:17:27;;;;;;;2.10;0.80;;;;;;;6.76;73.93;95083.22;5019587;28;20206;-84
2021/03/12 03:19:54;;;;;;;0.73;0.63;;;;;;;6.67;73.88;95084.22;5019226;28;20235;-85
2021/03/12 03:22:24;;;;;;;0.90;0.70;;;;;;;6.71;74.02;95088.03;5018941;28;20234;-83
2021/03/12 03:24:51;;;;;;;1.00;0.70;;;;;;;6.72;73.72;95076.84;5018930;28;20237;-82
2021/03/12 03:27:17;;;;;;;0.50;0.50;;;;;;;6.78;74.13;95097.44;5019044;28;20254;-82
2021/03/12 03:29:43;;;;;;;0.70;0.60;;;;;;;6.77;73.64;95093.28;5018971;28;20219;-83
2021/03/12 03:32:11;;;;;;;1.87;0.60;;;;;;;6.83;74.03;95092.63;5019343;28;20194;-82
2021/03/12 03:34:37;;;;;;;0.63;0.60;;;;;;;6.69;74.73;95090.75;5018282;28;20235;-82
2021/03/12 03:37:03;;;;;;;1.43;0.60;;;;;;;6.70;75.20;95099.22;5018200;28;20222;-85
2021/03/12 03:39:29;;;;;;;0.53;0.53;;;;;;;6.73;74.77;95094.59;5017785;28;20231;-82
2021/03/12 03:42:01;;;;;;;1.20;0.70;;;;;;;6.81;74.39;95109.09;5018841;28;20226;-85
2021/03/12 03:44:30;;;;;;;0.60;0.60;;;;;;;6.75;75.10;95105.44;5018987;28;20210;-83
2021/03/12 03:46:58;;;;;;;0.53;0.53;;;;;;;6.77;75.15;95108.63;5019347;28;20639;-85
2021/03/12 03:49:28;;;;;;;0.50;0.50;;;;;;;6.82;75.28;95108.94;5019397;28;20230;-84
2021/03/12 03:51:55;;;;;;;0.90;0.60;;;;;;;6.87;75.41;95113.56;5019364;28;20658;-82
2021/03/12 03:54:22;;;;;;;1.23;1.13;;;;;;;7.08;74.69;95118.94;5019790;28;20223;-83
2021/03/12 03:56:50;;;;;;;0.63;0.57;;;;;;;6.99;74.58;95119.13;5019158;28;20199;-83
2021/03/12 03:59:17;;;;;;;1.10;0.60;;;;;;;7.02;74.63;95122.16;5018273;28;20249;-83
2021/03/12 04:01:44;;;;;;;0.73;0.70;;;;;;;7.08;74.13;95123.25;5017158;28;20230;-84
2021/03/12 04:04:12;;;;;;;0.83;0.60;;;;;;;7.11;74.14;95128.03;5016948;28;20307;-83
2021/03/12 04:06:41;;;;;;;0.60;0.60;;;;;;;7.12;73.71;95130.41;5017887;28;20246;-82
2021/03/12 04:09:08;;;;;;;1.10;0.60;;;;;;;7.15;73.01;95134.41;5018161;28;20230;-85
2021/03/12 04:11:35;;;;;;;0.60;0.60;;;;;;;7.21;73.00;95136.31;5018520;28;20195;-83
2021/03/12 04:14:02;;;;;;;1.53;0.80;;;;;;;7.23;72.44;95150.53;5019338;28;20230;-83
2021/03/12 04:16:29;;;;;;;1.30;0.70;;;;;;;7.14;72.92;95154.09;5017355;28;20231;-83
2021/03/12 04:18:57;;;;;;;1.40;0.60;;;;;;;7.18;72.82;95155.34;5016912;28;20246;-83
2021/03/12 04:21:23;;;;;;;0.60;0.60;;;;;;;7.10;73.07;95168.19;5016913;28;20275;-84
2021/03/12 04:23:50;;;;;;;0.50;0.50;;;;;;;7.03;73.73;95169.00;5017010;28;20199;-85
2021/03/12 04:26:16;;;;;;;0.50;0.50;;;;;;;7.07;73.95;95160.06;5017837;28;20209;-84
2021/03/12 04:28:43;;;;;;;1.43;0.70;;;;;;;7.05;74.44;95167.88;5017515;28;20454;-85
2021/03/12 04:31:09;;;;;;;0.70;0.70;;;;;;;7.04;74.79;95176.53;5018129;28;20227;-85
2021/03/12 04:33:35;;;;;;;0.60;0.60;;;;;;;7.13;74.71;95169.59;5018844;28;20744;-82
2021/03/12 04:36:02;;;;;;;0.60;0.60;;;;;;;6.93;74.82;95187.09;5018767;28;20226;-83
2021/03/12 04:38:28;;;;;;;1.80;0.63;;;;;;;6.84;75.65;95186.34;5017878;28;20326;-84
2021/03/12 04:40:55;;;;;;;0.63;0.60;;;;;;;6.71;76.21;95191.16;5016689;28;20231;-83
2021/03/12 04:43:22;;;;;;;0.60;0.60;;;;;;;6.82;75.01;95183.13;5016748;28;20241;-82
2021/03/12 04:45:48;;;;;;;1.43;0.80;;;;;;;6.81;74.53;95191.78;5016011;28;20235;-83
2021/03/12 04:48:16;;;;;;;0.77;0.60;;;;;;;6.94;73.38;95188.69;5016008;28;20226;-82
2021/03/12 04:50:42;;;;;;;0.80;0.70;;;;;;;6.86;71.58;95186.97;5015563;28;20234;-83
2021/03/12 04:53:09;;;;;;;3.50;0.70;;;;;;;6.94;71.40;95202.28;5017351;28;20230;-83
2021/03/12 04:55:35;;;;;;;2.13;0.83;;;;;;;7.01;70.86;95186.28;5017005;28;20226;-84
2021/03/12 04:58:05;;;;;;;1.40;0.80;;;;;;;6.94;70.81;95197.16;5018121;28;20242;-82
2021/03/12 05:00:32;;;;;;;1.50;1.00;;;;;;;6.88;71.25;95189.38;5016990;28;20230;-85
2021/03/12 05:02:59;;;;;;;1.63;0.70;;;;;;;6.99;71.20;95188.22;5017436;28;20862;-82
2021/03/12 05:05:25;;;;;;;1.10;0.73;;;;;;;6.92;71.18;95211.13;5017923;28;20214;-85
2021/03/12 05:07:53;;;;;;;0.80;0.80;;;;;;;6.83;71.26;95192.41;5017530;28;20230;-85
2021/03/12 05:10:19;;;;;;;1.80;0.90;;;;;;;6.77;71.44;95194.81;5017504;28;20239;-82
2021/03/12 05:12:45;;;;;;;1.40;0.80;;;;;;;6.87;71.40;95196.25;5017443;28;20257;-84
2021/03/12 05:15:13;;;;;;;2.40;0.93;;;;;;;6.94;70.71;95186.94;5018085;28;20242;-84
2021/03/12 05:17:39;;;;;;;1.57;0.80;;;;;;;6.91;70.66;95176.25;5018754;28;20214;-84
2021/03/12 05:20:06;;;;;;;1.90;1.00;;;;;;;6.86;70.32;95193.84;5018017;28;20666;-83
2021/03/12 05:22:32;;;;;;;2.10;1.03;;;;;;;6.90;69.69;95190.00;5016775;28;20235;-84
2021/03/12 05:24:58;;;;;;;1.33;0.83;;;;;;;6.89;69.35;95201.22;5016009;28;20226;-83
2021/03/12 05:27:24;;;;;;;1.40;1.00;;;;;;;6.90;69.12;95202.81;5015957;28;20265;-83
2021/03/12 05:29:50;;;;;;;1.83;0.90;;;;;;;6.93;69.27;95193.00;5014783;28;20237;-83
2021/03/12 05:32:17;;;;;;;1.47;0.80;;;;;;;6.92;70.23;95211.13;5015291;28;20963;-83
2021/03/12 05:34:43;;;;;;;2.10;1.00;;;;;;;7.00;70.14;95208.53;5015934;28;20230;-85
2021/03/12 05:37:09;;;;;;;2.53;0.83;;;;;;;7.05;70.64;95213.16;5012270;28;20218;-85
2021/03/12 05:39:35;;;;;;;2.40;1.10;;;;;;;7.10;70.66;95219.41;5010404;28;20238;-83
2021/03/12 05:42:02;;;;;;;3.07;1.00;;;;;;;7.17;70.51;95227.19;5006851;28;20258;-82
2021/03/12 05:44:28;;;;;;;1.57;0.80;;;;;;;7.15;71.07;95227.38;5011708;28;20206;-83
2021/03/12 05:46:55;;;;;;;1.90;1.00;;;;;;;7.19;71.17;95227.84;5011415;28;20227;-82
2021/03/12 05:49:22;;;;;;;2.33;0.97;;;;;;;7.24;71.22;95228.16;5012059;28;20227;-81
2021/03/12 05:51:49;;;;;;;3.63;0.80;;;;;;;7.16;72.13;95231.53;5013595;28;20277;-82
2021/03/12 05:54:15;;;;;;;3.07;1.20;;;;;;;7.14;72.14;95235.19;5013483;28;20231;-84
2021/03/12 05:56:41;;;;;;;1.97;0.83;;;;;;;7.21;71.94;95246.41;5012922;28;20252;-82
2021/03/12 05:59:07;;;;;;;2.03;1.10;;;;;;;7.15;72.16;95245.28;5013733;28;20202;-81
2021/03/12 06:01:33;;;;;;;1.77;0.97;;;;;;;7.20;72.45;95255.84;5014117;28;20230;-85
2021/03/12 06:03:59;;;;;;;1.70;1.10;;;;;;;7.27;71.78;95253.44;5015254;28;20685;-84
2021/03/12 06:06:26;;;;;;;1.17;0.80;;;;;;;7.21;71.94;95259.19;5016951;28;20223;-84
2021/03/12 06:08:52;;;;;;;2.10;1.03;;;;;;;7.29;71.38;95256.63;5016355;28;20759;-86
2021/03/12 06:11:18;;;;;;;1.43;1.10;;;;;;;7.42;71.16;95256.09;5016516;28;20220;-86
2021/03/12 06:13:49;;;;;;;2.63;1.10;;;;;;;7.38;71.61;95268.44;5015857;28;20253;-83
2021/03/12 06:16:23;;;;;;;1.27;0.70;;;;;;;7.43;71.26;95283.31;5014721;28;20223;-83
2021/03/12 06:19:17;;;;;;;2.47;1.40;;;;;;;7.33;71.47;95272.44;5016763;28;20234;-85
2021/03/12 06:21:45;;;;;;;1.27;0.90;;;;;;;7.35;72.03;95285.88;5016124;28;20231;-83
2021/03/12 06:24:22;;;;;;;1.00;0.90;;;;;;;7.37;72.30;95297.56;5016380;28;20224;-84
2021/03/12 06:26:48;;;;;;;4.30;0.93;;;;;;;7.52;72.10;95308.72;5016482;28;20206;-84
2021/03/12 06:29:14;;;;;;;1.70;1.10;;;;;;;7.57;72.45;95303.13;5016361;28;20247;-83
2021/03/12 06:31:50;;;;;;;2.13;0.80;;;;;;;7.35;73.11;95309.72;5014925;28;20223;-84
2021/03/12 06:34:16;;;;;;;1.47;1.00;;;;;;;7.25;73.39;95320.16;5014353;28;20230;-83
2021/03/12 06:36:42;;;;;;;4.60;3.37;;;;;;;7.25;74.20;95325.28;5015920;28;20238;-84
2021/03/12 06:39:09;;;;;;;3.67;1.47;;;;;;;7.34;73.59;95330.38;5015867;28;20219;-83
2021/03/12 06:41:39;;;;;;;2.33;1.10;;;;;;;7.44;73.67;95333.56;5015486;28;20617;-85
2021/03/12 06:44:24;;;;;;;2.87;1.10;;;;;;;7.46;73.47;95337.56;5013956;28;20650;-84
2021/03/12 06:46:50;;;;;;;2.10;1.30;;;;;;;7.55;73.44;95339.16;5013419;28;20234;-84
2021/03/12 06:49:16;;;;;;;2.93;0.90;;;;;;;7.51;72.75;95335.31;5012927;28;20321;-83
2021/03/12 06:51:53;;;;;;;1.67;0.90;;;;;;;7.55;72.96;95339.16;5012746;28;20226;-82
2021/03/12 06:54:20;;;;;;;1.00;0.90;;;;;;;7.59;72.41;95350.66;5014429;28;20230;-85
2021/03/12 06:56:46;;;;;;;3.20;1.17;;;;;;;7.64;72.40;95347.63;5014070;28;20207;-84
2021/03/12 06:59:13;;;;;;;1.53;0.97;;;;;;;7.68;71.59;95350.66;5015022;28;20223;-83
2021/03/12 07:01:39;;;;;;;1.00;0.90;;;;;;;7.60;71.83;95354.84;5015493;28;20780;-85
2021/03/12 07:04:09;;;;;;;1.50;1.30;;;;;;;7.63;71.64;95363.97;5016062;28;20230;-83
2021/03/12 07:06:43;;;;;;;1.97;1.10;;;;;;;7.63;71.47;95372.44;5016077;28;20234;-82
2021/03/12 07:09:09;;;;;;;1.87;0.90;;;;;;;7.66;71.74;95373.88;5015659;28;20230;-83
2021/03/12 07:11:36;;;;;;;1.47;1.03;;;;;;;7.68;71.45;95376.28;5015409;28;20245;-83
2021/03/12 07:14:03;;;;;;;1.87;1.07;;;;;;;7.75;70.90;95369.53;5015054;28;20227;-83
2021/03/12 07:16:29;;;;;;;1.27;0.80;;;;;;;7.62;70.14;95375.16;5018403;28;20226;-82
2021/03/12 07:18:56;;;;;;;1.40;1.03;;;;;;;7.28;70.31;95378.75;4998733;28;20235;-85
2021/03/12 07:21:25;;;;;;;2.70;1.10;;;;;;;7.43;70.76;95391.69;4998913;28;20234;-84
2021/03/12 07:23:56;;;;;;;1.03;0.93;;;;;;;7.38;69.74;95386.25;4999547;28;20215;-85
2021/03/12 07:26:23;;;;;;;1.50;1.00;;;;;;;7.35;69.26;95384.00;4999495;28;20208;-82
2021/03/12 07:28:57;;;;;;;1.70;0.80;;;;;;;7.45;68.71;95389.78;4998569;28;20231;-82
2021/03/12 07:31:31;;;;;;;1.87;1.10;;;;;;;7.47;67.66;95385.28;5003545;28;20215;-84
2021/03/12 07:33:59;;;;;;;3.00;1.10;;;;;;;7.45;67.35;95396.66;5017784;28;20226;-84
2021/03/12 07:36:27;;;;;;;1.23;1.13;;;;;;;7.62;67.42;95400.78;5016795;28;20244;-84
2021/03/12 07:38:56;;;;;;;2.10;0.90;;;;;;;7.62;66.61;95414.41;5017366;28;20202;-83
2021/03/12 07:41:22;;;;;;;2.20;1.40;;;;;;;7.61;66.49;95414.56;5017406;28;20862;-85
2021/03/12 07:43:51;;;;;;;2.63;1.03;;;;;;;7.74;66.17;95414.06;5018399;28;20230;-82
2021/03/12 07:46:18;;;;;;;4.33;1.13;;;;;;;7.81;66.80;95409.88;5019621;28;20226;-84
2021/03/12 07:48:44;;;;;;;2.27;1.10;;;;;;;7.89;66.00;95425.22;5019206;28;20666;-86
2021/03/12 07:51:12;;;;;;;1.73;0.97;;;;;;;7.81;64.44;95425.25;5018749;28;20231;-84
2021/03/12 07:53:51;;;;;;;6.87;4.47;;;;;;;7.69;64.44;95435.06;5018464;28;20735;-85
2021/03/12 07:56:31;;;;;;;1.67;1.00;;;;;;;7.65;64.91;95425.28;5017007;28;20226;-83
2021/03/12 07:59:00;;;;;;;1.30;0.90;;;;;;;7.75;64.97;95424.13;5014339;28;20230;-82
2021/03/12 08:01:27;;;;;;;1.27;0.97;;;;;;;7.74;64.57;95425.09;5013968;28;20310;-85
2021/03/12 08:03:55;;;;;;;3.23;1.10;;;;;;;7.74;65.05;95430.22;5014591;28;20238;-84
2021/03/12 08:06:32;;;;;;;2.87;0.93;;;;;;;7.78;65.29;95423.03;5014366;28;20218;-83
2021/03/12 08:08:58;;;;;;;1.37;0.90;;;;;;;7.73;65.02;95425.25;5014670;28;20844;-85
2021/03/12 08:11:27;;;;;;;2.43;1.20;;;;;;;7.93;65.17;95424.75;5016386;28;20199;-85
2021/03/12 08:13:54;;;;;;;1.37;1.00;;;;;;;8.05;63.96;95424.41;5015470;28;20915;-82
2021/03/12 08:16:21;;;;;;;2.97;1.00;;;;;;;8.14;63.47;95418.28;5015015;28;20241;-85
2021/03/12 08:18:47;;;;;;;1.93;0.90;;;;;;;8.34;61.58;95401.56;5015635;28;20223;-83
2021/03/12 08:21:33;;;;;;;2.53;1.10;;;;;;;8.98;58.89;95405.56;5015392;28;20443;-85
2021/03/12 08:23:59;;;;;;;3.83;1.27;;;;;;;9.42;57.57;95410.06;5015401;28;20210;-82
2021/03/12 08:26:59;;;;;;;2.27;1.20;;;;;;;9.91;55.85;95391.59;5015183;28;20218;-83
2021/03/12 08:29:38;;;;;;;1.83;1.00;;;;;;;10.36;54.61;95386.28;4955178;28;20233;-83
2021/03/12 08:32:42;;;;;;;1.00;0.90;;;;;;;11.06;53.24;95390.78;4955792;28;20735;-86
2021/03/12 08:35:38;;;;;;;2.53;0.90;;;;;;;11.42;51.07;95384.75;5002848;28;20318;-83
2021/03/12 08:38:06;;;;;;;2.50;0.97;;;;;;;11.37;50.24;95381.91;5014620;28;20250;-82
2021/03/12 08:40:33;;;;;;;1.60;0.97;;;;;;;11.40;49.58;95384.13;5014005;28;20292;-83
2021/03/12 08:43:01;;;;;;;1.50;1.00;;;;;;;11.56;49.25;95378.69;5013328;28;20234;-82
2021/03/12 08:45:35;;;;;;;2.43;0.90;;;;;;;11.76;49.11;95381.44;5013326;28;20230;-82
2021/03/12 08:48:04;;;;;;;1.40;1.00;;;;;;;12.00;48.64;95375.84;5014505;28;20215;-84
2021/03/12 08:50:30;;;;;;;1.93;1.10;;;;;;;12.19;47.53;95370.97;5014498;28;20755;-82
2021/03/12 08:52:57;;;;;;;1.03;0.90;;;;;;;12.34;46.89;95369.84;5014514;28;20222;-84
2021/03/12 08:55:23;;;;;;;1.37;0.80;;;;;;;12.64;47.17;95374.75;5014762;28;20293;-85
2021/03/12 08:57:49;;;;;;;1.73;0.80;;;;;;;12.38;45.00;95367.69;5014452;28;20284;-84
2021/03/12 09:00:16;;;;;;;1.90;0.97;;;;;;;11.99;45.92;95383.78;5013230;28;20231;-85
2021/03/12 09:02:43;;;;;;;2.37;1.00;;;;;;;12.13;45.93;95364.78;5013527;28;20637;-83
2021/03/12 09:05:28;;;;;;;2.80;1.00;;;;;;;12.40;46.41;95360.56;5013424;28;20214;-83
2021/03/12 09:07:55;;;;;;;2.47;0.90;;;;;;;12.43;45.52;95367.91;5012541;28;20281;-84
2021/03/12 09:10:26;;;;;;;1.23;0.80;;;;;;;12.02;44.84;95376.47;5011837;28;20264;-84
2021/03/12 09:12:52;;;;;;;1.60;0.90;;;;;;;11.54;46.32;95365.22;5012344;28;20362;-82
2021/03/12 09:15:22;;;;;;;2.60;0.90;;;;;;;11.47;46.88;95361.78;5012245;28;20227;-84
2021/03/12 09:17:48;;;;;;;2.63;0.90;;;;;;;11.39;46.85;95354.97;5012436;28;20214;-84
2021/03/12 09:20:18;;;;;;;2.33;1.10;;;;;;;11.49;45.67;95346.94;5013802;28;20227;-83
2021/03/12 09:22:51;;;;;;;2.80;1.37;;;;;;;11.83;45.42;95348.75;5013230;28;20231;-83
2021/03/12 09:25:24;;;;;;;2.60;1.03;;;;;;;11.70;44.38;95341.72;5012898;28;20262;-81
2021/03/12 09:27:58;;;;;;;2.17;1.10;;;;;;;11.28;45.60;95376.13;5012944;28;20349;-83
2021/03/12 09:30:25;;;;;;;1.87;0.90;;;;;;;10.83;46.16;95343.00;5012562;28;20227;-81
2021/03/12 09:32:51;;;;;;;2.30;0.97;;;;;;;10.68;46.34;95350.78;5012992;28;20691;-82
2021/03/12 09:35:19;;;;;;;3.57;2.60;;;;;;;10.44;45.88;95336.47;5013466;28;20203;-83
2021/03/12 09:37:45;;;;;;;4.10;1.43;;;;;;;10.27;46.41;95341.03;5012357;28;20235;-81
2021/03/12 09:40:34;;;;;;;1.90;1.00;;;;;;;10.18;46.50;95333.56;5013187;28;20326;-85
2021/03/12 09:43:01;;;;;;;2.33;1.00;;;;;;;10.02;46.54;95337.13;5012874;28;20238;-82
2021/03/12 09:45:27;;;;;;;2.77;1.13;;;;;;;9.85;46.98;95333.94;5013395;28;20917;-83
2021/03/12 09:47:53;;;;;;;1.80;0.80;;;;;;;10.02;47.18;95334.53;5013513;28;20659;-83
2021/03/12 09:50:23;;;;;;;3.30;1.00;;;;;;;10.20;47.15;95335.00;5013532;28;20277;-81
2021/03/12 09:52:51;;;;;;;1.73;0.90;;;;;;;10.28;46.80;95334.91;5013536;28;20237;-83
2021/03/12 09:55:17;;;;;;;3.77;1.40;;;;;;;10.66;47.02;95332.94;5014812;28;20299;-82
2021/03/12 09:57:44;;;;;;;1.77;1.03;;;;;;;10.63;45.41;95329.94;5014083;28;20557;-81
2021/03/12 10:00:19;;;;;;;3.00;0.80;;;;;;;10.34;45.26;95334.19;5011512;28;20230;-81
2021/03/12 10:02:56;;;;;;;2.30;1.13;;;;;;;10.21;45.89;95316.00;5010341;28;20225;-81
2021/03/12 10:05:24;;;;;;;2.20;0.90;;;;;;;10.45;45.06;95326.97;5011308;28;20269;-82
2021/03/12 10:07:50;;;;;;;3.13;1.00;;;;;;;10.74;45.92;95329.47;5011617;28;20230;-81
2021/03/12 10:10:23;;;;;;;3.13;1.10;;;;;;;10.65;45.24;95326.19;5012666;28;20261;-85
2021/03/12 10:12:51;;;;;;;1.03;0.93;;;;;;;10.49;45.65;95323.06;5012793;28;20230;-82
2021/03/12 10:15:19;;;;;;;3.90;1.23;;;;;;;10.75;45.10;95319.97;5013503;28;20226;-82
2021/03/12 10:17:46;;;;;;;5.73;3.20;;;;;;;10.88;45.21;95330.38;5013991;28;20632;-82
2021/03/12 10:20:25;;;;;;;1.17;0.97;;;;;;;10.75;44.77;95320.75;5013738;28;20733;-82
2021/03/12 10:22:54;;;;;;;1.60;0.80;;;;;;;10.56;44.66;95334.22;5014546;28;20237;-82
2021/03/12 10:25:22;;;;;;;1.67;1.10;;;;;;;10.77;45.34;95326.53;5014641;28;20230;-83
2021/03/12 10:27:51;;;;;;;2.67;0.90;;;;;;;10.53;45.18;95326.88;5013563;28;20721;-82
2021/03/12 10:30:19;;;;;;;4.07;1.00;;;;;;;10.42;44.49;95335.84;5011140;28;20239;-83
2021/03/12 10:32:47;;;;;;;2.57;1.00;;;;;;;10.19;45.24;95333.44;5010987;28;20280;-82
2021/03/12 10:35:21;;;;;;;3.17;1.20;;;;;;;9.97;46.00;95329.97;5011270;28;20221;-81
2021/03/12 10:37:48;;;;;;;1.13;0.90;;;;;;;10.13;46.42;95333.31;5011740;28;20237;-82
2021/03/12 10:40:15;;;;;;;2.50;1.07;;;;;;;10.19;45.56;95335.19;5011648;28;20242;-82
2021/03/12 10:42:41;;;;;;;2.57;1.10;;;;;;;10.38;44.73;95340.56;5013031;28;20234;-81
2021/03/12 10:45:11;;;;;;;3.13;1.20;;;;;;;10.31;44.55;95326.84;5013022;28;20222;-82
2021/03/12 10:47:37;;;;;;;2.30;1.20;;;;;;;10.24;45.23;95332.88;5012461;28;20218;-82
2021/03/12 10:50:19;;;;;;;1.70;1.20;;;;;;;10.19;45.41;95330.84;5013607;28;20293;-83
2021/03/12 10:52:45;;;;;;;1.83;1.10;;;;;;;10.12;45.44;95331.72;5016686;28;20234;-83
2021/03/12 10:55:12;;;;;;;1.63;0.90;;;;;;;10.34;44.48;95326.47;5015118;28;20234;-84
2021/03/12 10:57:40;;;;;;;3.20;1.23;;;;;;;10.70;44.74;95323.06;5015587;28;20237;-84
2021/03/12 11:00:17;;;;;;;1.47;1.00;;;;;;;10.49;44.72;95312.75;5015673;28;20245;-84
2021/03/12 11:02:43;;;;;;;2.13;1.10;;;;;;;10.55;44.66;95314.63;5016260;28;20223;-83
2021/03/12 11:05:12;;;;;;;2.17;1.07;;;;;;;10.54;44.82;95305.28;5015717;28;20207;-84
2021/03/12 11:07:41;;;;;;;3.40;1.07;;;;;;;10.83;44.43;95314.66;5016083;28;20309;-85
2021/03/12 11:10:08;;;;;;;2.43;0.97;;;;;;;11.14;43.32;95307.44;5015639;28;20230;-84
2021/03/12 11:12:36;;;;;;;0.97;0.77;;;;;;;11.26;42.01;95295.59;5017091;28;20227;-83
2021/03/12 11:15:03;;;;;;;2.10;1.10;;;;;;;11.48;42.86;95287.81;5017282;28;20199;-83
2021/03/12 11:17:29;;;;;;;1.90;0.97;;;;;;;11.78;41.95;95278.88;5018402;28;20234;-84
2021/03/12 11:19:55;;;;;;;2.43;1.10;;;;;;;11.81;41.16;95285.44;5014428;28;20241;-83
2021/03/12 11:22:21;;;;;;;1.67;1.13;;;;;;;11.84;40.57;95285.88;5013722;28;20234;-83
2021/03/12 11:24:47;;;;;;;5.57;3.37;;;;;;;11.95;40.17;95277.56;5013955;28;20291;-83
2021/03/12 11:27:15;;;;;;;1.77;1.07;;;;;;;11.98;40.30;95287.50;5014456;28;20230;-82
2021/03/12 11:29:41;;;;;;;1.90;1.00;;;;;;;11.88;40.59;95279.34;5014530;28;20222;-83
2021/03/12 11:32:07;;;;;;;2.40;1.10;;;;;;;11.94;40.03;95270.81;5013706;28;20325;-84
2021/03/12 11:34:34;;;;;;;2.10;1.10;;;;;;;12.13;39.96;95268.50;5013432;28;20285;-83
2021/03/12 11:37:01;;;;;;;2.00;1.10;;;;;;;12.43;40.26;95265.44;5013881;28;20238;-84
2021/03/12 11:39:27;;;;;;;2.57;1.20;;;;;;;12.71;40.27;95273.00;5014940;28;20235;-84
2021/03/12 11:41:53;;;;;;;2.30;1.00;;;;;;;12.77;39.94;95259.31;5019841;28;20219;-84
2021/03/12 11:44:19;;;;;;;1.93;0.90;;;;;;;12.77;40.31;95267.06;5016004;28;20282;-84